Time;durP1;ratioP1;P1;durP2;ratioP2;P2;SDS_P1;SDS_P2;PMS_P1;PMS_P2;Temp;Humidity;BMP_temperature;BMP_pressure;BME280_temperature;BME280_humidity;BME280_pressure;Samples;Min_cycle;Max_cycle;Signal;HPM_P1;HPM_P2
2022/02/12 03:32:24;;;;;;;4.55;2.10;;;7.70;76.40;;;;;;2253715;56;1748905;-76
2022/02/12 03:34:51;;;;;;;5.25;2.50;;;1.20;67.80;;;;;;2289768;56;20969;-75
2022/02/12 03:37:19;;;;;;;5.47;2.45;;;1.00;67.80;;;;;;2289782;56;21009;-74
2022/02/12 03:39:45;;;;;;;4.35;2.20;;;1.00;67.90;;;;;;2419239;55;20952;-75
2022/02/12 03:42:14;;;;;;;7.55;2.65;;;0.90;67.90;;;;;;2521910;54;21002;-73
2022/02/12 03:44:40;;;;;;;7.18;2.90;;;0.90;67.90;;;;;;2333540;55;20997;-72
2022/02/12 03:47:06;;;;;;;6.97;3.37;;;0.90;67.90;;;;;;2289202;56;21001;-72
2022/02/12 03:49:33;;;;;;;6.95;3.03;;;0.90;67.90;;;;;;2485029;54;20937;-74
2022/02/12 03:52:00;;;;;;;6.82;2.85;;;0.90;67.90;;;;;;2290865;54;20990;-74
2022/02/12 03:54:26;;;;;;;10.68;3.55;;;0.90;68.00;;;;;;2351298;54;21466;-75
2022/02/12 03:56:53;;;;;;;7.70;3.22;;;0.90;68.00;;;;;;2291866;55;21022;-73
2022/02/12 03:59:21;;;;;;;8.05;3.40;;;0.90;68.10;;;;;;2358660;55;20997;-74
2022/02/12 04:01:47;;;;;;;7.55;3.53;;;0.90;68.10;;;;;;2289714;56;21273;-74
2022/02/12 04:04:14;;;;;;;7.32;3.60;;;0.90;68.00;;;;;;2524747;54;21028;-73
2022/02/12 04:06:40;;;;;;;9.25;3.33;;;0.90;68.00;;;;;;2296394;55;21216;-75
2022/02/12 04:09:09;;;;;;;7.25;3.50;;;0.90;67.90;;;;;;2338163;55;20977;-74
2022/02/12 04:11:35;;;;;;;6.28;3.08;;;0.90;67.90;;;;;;2348504;55;20949;-74
2022/02/12 04:14:03;;;;;;;7.90;3.72;;;0.90;67.80;;;;;;2289714;56;20960;-72
2022/02/12 04:16:30;;;;;;;7.28;3.70;;;0.90;67.80;;;;;;2289819;56;20992;-74
2022/02/12 04:18:57;;;;;;;6.97;3.70;;;0.80;67.70;;;;;;2292022;55;20949;-71
2022/02/12 04:21:24;;;;;;;7.85;3.85;;;0.80;67.70;;;;;;2289529;56;20928;-74
2022/02/12 04:23:50;;;;;;;8.60;3.92;;;0.80;67.70;;;;;;2512813;54;20945;-76
2022/02/12 04:26:18;;;;;;;7.20;3.17;;;0.80;67.60;;;;;;2447178;54;21047;-72
2022/02/12 04:28:44;;;;;;;8.88;4.22;;;0.80;67.60;;;;;;2273938;55;21025;-73
2022/02/12 04:31:10;;;;;;;8.32;3.55;;;0.80;67.60;;;;;;2289428;56;20947;-74
2022/02/12 04:33:36;;;;;;;7.30;3.75;;;0.80;67.60;;;;;;2288620;55;20950;-73
2022/02/12 04:36:03;;;;;;;7.10;3.50;;;0.80;67.70;;;;;;2290750;55;20989;-74
2022/02/12 04:38:32;;;;;;;8.23;3.60;;;0.80;67.70;;;;;;2287786;55;21041;-74
2022/02/12 04:41:00;;;;;;;8.70;3.92;;;0.70;67.60;;;;;;2294939;55;20965;-74
2022/02/12 04:43:39;;;;;;;7.70;4.50;;;0.70;67.70;;;;;;2287438;55;20944;-75
2022/02/12 04:46:05;;;;;;;7.00;3.75;;;0.70;67.70;;;;;;2290042;56;21026;-73
2022/02/12 04:48:31;;;;;;;9.40;5.70;;;0.70;67.70;;;;;;2289450;56;20965;-76
2022/02/12 04:50:58;;;;;;;7.95;4.85;;;0.70;67.80;;;;;;2289043;56;21040;-75
2022/02/12 04:53:24;;;;;;;7.37;4.18;;;0.70;68.00;;;;;;2367036;55;20996;-76
2022/02/12 04:55:52;;;;;;;8.57;4.75;;;0.70;68.10;;;;;;2289573;56;21365;-75
2022/02/12 04:58:18;;;;;;;9.98;4.78;;;0.70;68.10;;;;;;2289183;56;20960;-72
2022/02/12 05:00:44;;;;;;;12.02;4.80;;;0.70;68.10;;;;;;2469807;55;21514;-73
2022/02/12 05:03:11;;;;;;;7.40;3.75;;;0.70;68.00;;;;;;2290153;56;20977;-74
2022/02/12 05:05:37;;;;;;;8.32;4.00;;;0.70;68.00;;;;;;2391460;55;21028;-76
2022/02/12 05:08:03;;;;;;;7.90;4.18;;;0.70;68.00;;;;;;2301576;55;20953;-73
2022/02/12 05:10:31;;;;;;;6.72;3.58;;;0.70;67.90;;;;;;2442103;54;21024;-72
2022/02/12 05:12:58;;;;;;;6.85;3.62;;;0.70;67.90;;;;;;2289572;56;20952;-75
2022/02/12 05:15:24;;;;;;;8.23;3.87;;;0.70;67.80;;;;;;2524094;55;21004;-76
2022/02/12 05:17:53;;;;;;;7.32;3.87;;;0.60;67.80;;;;;;2323900;55;20949;-73
2022/02/12 05:20:19;;;;;;;7.10;3.80;;;0.60;67.70;;;;;;2289751;56;21548;-75
2022/02/12 05:22:46;;;;;;;8.52;3.92;;;0.60;67.70;;;;;;2289405;55;20932;-72
2022/02/12 05:25:15;;;;;;;7.25;3.97;;;0.60;67.70;;;;;;2387071;55;20925;-73
2022/02/12 05:27:42;;;;;;;14.15;4.78;;;0.60;67.60;;;;;;2291470;55;20954;-76
2022/02/12 05:30:11;;;;;;;10.63;4.53;;;0.60;67.50;;;;;;2519141;54;21094;-74
2022/02/12 05:32:38;;;;;;;10.95;4.57;;;0.60;67.70;;;;;;2290236;55;21028;-76
2022/02/12 05:35:05;;;;;;;9.15;4.07;;;0.60;67.70;;;;;;2332242;55;21019;-73
2022/02/12 05:37:32;;;;;;;9.50;4.50;;;0.50;67.60;;;;;;2512743;55;21463;-75
2022/02/12 05:40:00;;;;;;;9.38;4.20;;;0.50;67.50;;;;;;2285104;55;21430;-72
2022/02/12 05:42:26;;;;;;;8.02;4.22;;;0.50;67.50;;;;;;2327783;55;20930;-75
2022/02/12 05:44:53;;;;;;;7.40;3.75;;;0.50;67.50;;;;;;2425796;54;20981;-76
2022/02/12 05:47:20;;;;;;;6.78;3.55;;;0.50;67.50;;;;;;2266866;56;20961;-76
2022/02/12 05:49:46;;;;;;;9.77;3.83;;;0.50;67.50;;;;;;2287954;55;20948;-74
2022/02/12 05:52:12;;;;;;;7.87;3.35;;;0.50;67.50;;;;;;2425699;55;21000;-73
2022/02/12 05:54:39;;;;;;;8.25;3.47;;;0.50;67.50;;;;;;2290455;55;20933;-76
2022/02/12 05:57:05;;;;;;;9.38;3.55;;;0.40;67.50;;;;;;2288859;56;20989;-72
2022/02/12 05:59:34;;;;;;;7.53;3.03;;;0.40;67.50;;;;;;2288213;56;20973;-73
2022/02/12 06:02:01;;;;;;;6.50;2.80;;;0.40;67.60;;;;;;2289685;56;20956;-76
2022/02/12 06:04:27;;;;;;;5.22;2.58;;;0.40;67.50;;;;;;2291490;54;20951;-74
2022/02/12 06:06:53;;;;;;;5.05;2.12;;;0.40;67.50;;;;;;2286076;55;21035;-74
2022/02/12 06:09:20;;;;;;;5.35;2.28;;;0.40;67.40;;;;;;2289153;55;21016;-74
2022/02/12 06:11:46;;;;;;;6.65;2.53;;;0.40;67.40;;;;;;2289957;56;20992;-73
2022/02/12 06:14:12;;;;;;;8.57;3.20;;;0.40;67.40;;;;;;2289782;56;21028;-76
2022/02/12 06:16:40;;;;;;;5.55;2.78;;;0.30;67.30;;;;;;2289760;56;20927;-74
2022/02/12 06:19:06;;;;;;;10.13;3.75;;;0.30;67.30;;;;;;2289968;56;20952;-75
2022/02/12 06:21:33;;;;;;;11.15;3.62;;;0.30;67.40;;;;;;2288632;55;21095;-74
2022/02/12 06:23:59;;;;;;;6.45;3.75;;;0.30;67.60;;;;;;2289952;56;20936;-72
2022/02/12 06:26:25;;;;;;;7.50;3.45;;;0.30;67.70;;;;;;2379675;55;20945;-73
2022/02/12 06:28:56;;;;;;;5.07;2.70;;;0.30;67.80;;;;;;2292150;56;21575;-75
2022/02/12 06:31:22;;;;;;;8.13;3.00;;;0.30;67.80;;;;;;2290155;56;21010;-74
2022/02/12 06:33:48;;;;;;;9.63;3.35;;;0.30;67.80;;;;;;2289823;56;20977;-73
2022/02/12 06:36:15;;;;;;;7.78;2.83;;;0.30;67.70;;;;;;2292025;55;21016;-75
2022/02/12 06:38:41;;;;;;;9.20;3.62;;;0.30;67.70;;;;;;2307633;55;20948;-75
2022/02/12 06:41:08;;;;;;;7.35;4.03;;;0.30;67.60;;;;;;2289486;56;21004;-74
2022/02/12 06:43:36;;;;;;;7.12;3.37;;;0.30;67.50;;;;;;2289885;56;21100;-74
2022/02/12 06:46:02;;;;;;;9.25;4.00;;;0.20;67.40;;;;;;2289167;54;20961;-73
2022/02/12 06:48:28;;;;;;;10.60;4.32;;;0.20;67.40;;;;;;2378224;54;21017;-75
2022/02/12 06:50:55;;;;;;;6.87;4.03;;;0.20;67.40;;;;;;2269317;56;21051;-72
2022/02/12 06:53:22;;;;;;;6.18;3.58;;;0.20;67.50;;;;;;2288552;55;20945;-75
2022/02/12 06:55:49;;;;;;;6.45;3.87;;;0.20;67.60;;;;;;2287649;55;21386;-76
2022/02/12 06:58:16;;;;;;;7.78;3.65;;;0.20;67.70;;;;;;2290555;55;21477;-74
2022/02/12 07:00:43;;;;;;;5.95;3.17;;;0.20;67.80;;;;;;2409683;54;20966;-73
2022/02/12 07:03:09;;;;;;;8.00;3.72;;;0.20;67.80;;;;;;2294957;55;21057;-77
2022/02/12 07:05:36;;;;;;;6.60;3.40;;;0.20;67.80;;;;;;2366589;54;20984;-73
2022/02/12 07:08:02;;;;;;;8.25;4.50;;;0.20;67.90;;;;;;2289537;56;20956;-72
2022/02/12 07:10:31;;;;;;;11.57;5.00;;;0.20;67.90;;;;;;2291198;55;21029;-76
2022/02/12 07:12:57;;;;;;;10.85;5.00;;;0.20;68.00;;;;;;2333163;55;21021;-74
2022/02/12 07:15:23;;;;;;;11.95;5.75;;;0.30;68.10;;;;;;2282341;55;20933;-73
2022/02/12 07:17:50;;;;;;;10.52;5.72;;;0.20;68.00;;;;;;2289916;56;20997;-71
2022/02/12 07:20:17;;;;;;;13.73;6.30;;;0.20;68.00;;;;;;2289976;56;20969;-74
2022/02/12 07:22:44;;;;;;;15.07;6.07;;;0.30;68.00;;;;;;2314231;55;21518;-73
2022/02/12 07:25:14;;;;;;;11.57;5.68;;;0.30;67.90;;;;;;2287225;54;20976;-76
2022/02/12 07:27:41;;;;;;;14.73;5.93;;;0.30;67.90;;;;;;2511407;54;20937;-75
2022/02/12 07:30:08;;;;;;;13.82;6.12;;;0.30;67.80;;;;;;2293518;55;21767;-76
2022/02/12 07:32:39;;;;;;;15.85;7.65;;;0.30;67.90;;;;;;2285188;54;21524;-73
2022/02/12 07:35:08;;;;;;;18.95;8.82;;;0.30;68.00;;;;;;2432906;55;21032;-75
2022/02/12 07:37:36;;;;;;;23.15;10.38;;;0.20;68.00;;;;;;2473726;55;21055;-76
2022/02/12 07:40:04;;;;;;;16.67;8.40;;;0.20;68.00;;;;;;2290013;55;20929;-75
2022/02/12 07:42:33;;;;;;;15.85;7.75;;;0.20;68.10;;;;;;2286760;55;21052;-74
2022/02/12 07:44:59;;;;;;;16.48;8.65;;;0.30;69.10;;;;;;2289167;56;21016;-73
2022/02/12 07:47:25;;;;;;;15.38;8.02;;;0.30;68.60;;;;;;2289087;56;20953;-75
2022/02/12 07:49:52;;;;;;;14.60;7.60;;;0.30;68.80;;;;;;2289776;56;21795;-76
2022/02/12 07:52:19;;;;;;;14.93;7.18;;;0.40;69.20;;;;;;2289404;56;21059;-74
2022/02/12 07:54:46;;;;;;;14.70;7.18;;;0.40;69.40;;;;;;2313907;55;20989;-73
2022/02/12 07:57:12;;;;;;;15.45;7.07;;;0.50;69.80;;;;;;2288696;56;20984;-72
2022/02/12 07:59:39;;;;;;;13.18;7.22;;;0.50;70.00;;;;;;2522824;55;21438;-74
2022/02/12 08:02:05;;;;;;;15.20;7.57;;;0.60;70.20;;;;;;2288252;56;20956;-74
2022/02/12 08:04:32;;;;;;;14.60;7.15;;;0.70;70.40;;;;;;2336982;55;20964;-74
2022/02/12 08:09:46;;;;;;;15.80;7.65;;;0.80;70.60;;;;;;2289402;55;21009;-72
2022/02/12 08:12:18;;;;;;;19.58;9.52;;;0.90;70.70;;;;;;2291969;55;21036;-74
2022/02/12 08:14:47;;;;;;;15.63;8.05;;;1.00;70.70;;;;;;2289146;56;21016;-72
2022/02/12 08:17:17;;;;;;;15.10;8.63;;;1.00;70.70;;;;;;2288867;56;21040;-75
2022/02/12 08:19:45;;;;;;;15.60;8.05;;;1.10;70.90;;;;;;2368220;55;20956;-74
2022/02/12 08:22:12;;;;;;;16.12;9.50;;;1.20;71.00;;;;;;2523181;54;20937;-73
2022/02/12 08:24:38;;;;;;;21.75;11.70;;;1.30;71.20;;;;;;2288828;56;20952;-72
2022/02/12 08:27:04;;;;;;;19.08;9.20;;;1.30;71.30;;;;;;2289114;56;21028;-75
2022/02/12 08:29:33;;;;;;;14.55;8.52;;;1.40;71.40;;;;;;2337989;55;21000;-76
2022/02/12 08:32:02;;;;;;;14.80;7.90;;;1.50;71.50;;;;;;2288460;55;20991;-72
2022/02/12 08:34:29;;;;;;;18.42;8.65;;;1.60;71.50;;;;;;2288610;55;21017;-71
2022/02/12 08:36:56;;;;;;;16.92;7.85;;;1.70;71.60;;;;;;2300358;55;21971;-75
2022/02/12 08:39:22;;;;;;;16.67;8.98;;;1.80;71.60;;;;;;2372408;55;20979;-74
2022/02/12 08:41:49;;;;;;;17.45;9.73;;;1.90;71.70;;;;;;2289099;56;21494;-74
2022/02/12 08:44:16;;;;;;;15.75;8.63;;;2.00;71.80;;;;;;2289452;56;20992;-73
2022/02/12 08:46:43;;;;;;;16.33;8.70;;;2.10;71.90;;;;;;2291788;55;21070;-71
2022/02/12 08:49:10;;;;;;;15.32;8.05;;;2.10;71.70;;;;;;2295740;55;20965;-75
2022/02/12 08:51:39;;;;;;;14.55;8.05;;;2.20;71.50;;;;;;2289652;56;20933;-71
2022/02/12 08:54:09;;;;;;;15.70;9.05;;;2.30;71.30;;;;;;2289382;55;21037;-73
2022/02/12 08:56:38;;;;;;;17.08;8.93;;;2.30;71.00;;;;;;2450872;55;20985;-72
2022/02/12 08:59:05;;;;;;;24.83;12.30;;;2.40;71.00;;;;;;2290881;55;21035;-75
2022/02/12 09:01:32;;;;;;;22.87;11.52;;;2.40;70.90;;;;;;2286730;55;20941;-74
2022/02/12 09:03:58;;;;;;;35.97;15.73;;;2.50;71.00;;;;;;2289166;55;21462;-71
2022/02/12 09:06:25;;;;;;;31.98;12.20;;;2.50;71.00;;;;;;2291853;56;21013;-69
2022/02/12 09:09:08;;;;;;;161.12;32.08;;;2.60;71.20;;;;;;2315887;55;20916;-72
2022/02/12 09:11:38;;;;;;;53.55;20.33;;;2.60;71.30;;;;;;2289481;56;20961;-71
2022/02/12 09:14:05;;;;;;;35.83;15.27;;;2.70;71.50;;;;;;2477410;54;20952;-74
2022/02/12 09:16:34;;;;;;;32.58;12.80;;;2.80;71.70;;;;;;2287943;56;20996;-72
2022/02/12 09:19:00;;;;;;;28.20;14.55;;;2.80;71.90;;;;;;2320317;55;20985;-74
2022/02/12 09:21:27;;;;;;;29.58;15.02;;;2.90;72.50;;;;;;2288579;55;21822;-70
2022/02/12 09:23:53;;;;;;;17.95;11.00;;;3.10;74.30;;;;;;2368079;55;20949;-73
2022/02/12 09:26:20;;;;;;;16.98;10.48;;;3.40;76.70;;;;;;2288525;55;21036;-72
2022/02/12 09:28:46;;;;;;;17.52;11.52;;;3.80;78.70;;;;;;2288384;56;20952;-74
2022/02/12 09:31:13;;;;;;;15.30;9.35;;;4.30;80.60;;;;;;2393076;55;20980;-71
2022/02/12 09:33:39;;;;;;;12.37;8.07;;;4.80;81.30;;;;;;2266686;56;21002;-73
2022/02/12 09:36:08;;;;;;;13.27;6.93;;;5.30;81.20;;;;;;2289987;55;20950;-72
2022/02/12 09:38:34;;;;;;;11.43;7.43;;;5.80;80.70;;;;;;2286388;54;20960;-72
2022/02/12 09:41:01;;;;;;;12.85;8.43;;;6.20;80.00;;;;;;2288822;56;21509;-71
2022/02/12 09:43:28;;;;;;;13.70;8.35;;;6.50;78.80;;;;;;2287696;56;20966;-73
2022/02/12 09:47:58;;;;;;;11.98;7.85;;;6.70;77.70;;;;;;2423047;55;20961;-73
2022/02/12 09:50:25;;;;;;;12.27;7.28;;;7.20;75.80;;;;;;2312413;54;20929;-70
2022/02/12 09:52:54;;;;;;;10.90;7.50;;;7.40;76.90;;;;;;2289237;56;21815;-71
2022/02/12 09:55:21;;;;;;;10.80;6.65;;;7.70;76.70;;;;;;2292624;55;21010;-70
2022/02/12 09:57:47;;;;;;;10.45;6.25;;;7.90;76.70;;;;;;2286175;55;20929;-68
2022/02/12 10:00:15;;;;;;;11.18;6.72;;;7.90;75.40;;;;;;2288225;56;21033;-72
2022/02/12 10:02:42;;;;;;;9.73;6.90;;;8.10;75.50;;;;;;2289178;56;20937;-70
2022/02/12 10:05:30;;;;;;;10.32;6.95;;;8.20;76.20;;;;;;2289130;56;21391;-72
2022/02/12 10:08:29;;;;;;;9.05;5.80;;;8.40;76.40;;;;;;2425452;55;21029;-68
2022/02/12 10:10:56;;;;;;;10.55;6.53;;;8.60;75.70;;;;;;2288434;56;21738;-71
2022/02/12 10:13:24;;;;;;;10.02;6.45;;;8.80;77.60;;;;;;2288582;56;20952;-71
2022/02/12 10:19:35;;;;;;;12.05;5.82;;;9.50;76.90;;;;;;2288431;56;20968;-71
2022/02/12 10:22:13;;;;;;;10.30;5.80;;;9.90;77.00;;;;;;2325140;55;21382;-72
2022/02/12 10:25:05;;;;;;;9.48;5.87;;;10.20;75.40;;;;;;2288188;56;22243;-73
2022/02/12 10:27:34;;;;;;;12.27;5.43;;;10.50;73.60;;;;;;2287429;55;21028;-72
2022/02/12 10:30:03;;;;;;;7.40;5.12;;;10.70;74.20;;;;;;2289870;55;20959;-71
2022/02/12 10:32:30;;;;;;;8.75;5.43;;;10.80;73.10;;;;;;2288853;55;21019;-71
2022/02/12 10:34:57;;;;;;;9.48;5.28;;;11.00;72.70;;;;;;2365534;54;20975;-71
2022/02/12 10:37:24;;;;;;;8.95;5.65;;;11.00;71.70;;;;;;2286897;55;20921;-70
2022/02/12 10:40:00;;;;;;;11.75;5.82;;;11.10;71.30;;;;;;2403429;55;21910;-70
2022/02/12 10:42:43;;;;;;;9.65;5.62;;;11.10;70.70;;;;;;2285750;55;20981;-72
2022/02/12 10:45:16;;;;;;;8.13;4.68;;;11.10;70.80;;;;;;2286167;55;21279;-73
2022/02/12 10:47:43;;;;;;;9.80;5.60;;;11.10;70.20;;;;;;2288156;55;21018;-71
2022/02/12 10:50:10;;;;;;;6.87;4.85;;;11.20;70.10;;;;;;2289969;55;20938;-72
2022/02/12 10:53:07;;;;;;;8.40;5.40;;;11.20;70.20;;;;;;2281794;55;20973;-73
2022/02/12 10:55:36;;;;;;;9.20;5.57;;;11.30;68.80;;;;;;2312153;55;22436;-73
2022/02/12 10:58:07;;;;;;;7.95;5.25;;;11.30;70.30;;;;;;2288584;56;21056;-73
2022/02/12 11:00:36;;;;;;;9.15;5.20;;;11.40;69.80;;;;;;2287018;55;21013;-69
2022/02/12 11:03:05;;;;;;;8.00;5.00;;;11.40;70.00;;;;;;2332851;55;20952;-68
2022/02/12 11:05:33;;;;;;;9.35;4.95;;;11.40;69.60;;;;;;2287729;56;20995;-70
2022/02/12 11:08:00;;;;;;;7.35;4.82;;;11.40;69.40;;;;;;2287631;56;20949;-72
2022/02/12 11:10:27;;;;;;;9.27;5.18;;;11.40;69.60;;;;;;2288107;56;20956;-70
2022/02/12 11:12:54;;;;;;;10.00;4.90;;;11.50;70.10;;;;;;2288611;56;21376;-72
2022/02/12 11:15:21;;;;;;;8.23;5.37;;;11.50;70.60;;;;;;2340459;54;21683;-70
2022/02/12 11:18:11;;;;;;;10.98;5.20;;;11.70;70.80;;;;;;2288595;56;21008;-73
2022/02/12 11:20:38;;;;;;;8.98;5.32;;;11.70;70.30;;;;;;2287885;56;21405;-71
2022/02/12 11:26:39;;;;;;;9.73;5.35;;;11.90;70.70;;;;;;2290416;55;21526;-74
2022/02/12 11:29:40;;;;;;;7.45;3.97;;;12.10;68.80;;;;;;2359697;54;20979;-72
2022/02/12 11:32:41;;;;;;;6.78;4.62;;;12.30;70.20;;;;;;2282791;54;21790;-73
2022/02/12 11:35:17;;;;;;;8.70;5.60;;;12.40;71.70;;;;;;2288348;55;20941;-71
2022/02/12 11:37:45;;;;;;;7.85;5.12;;;12.60;70.80;;;;;;2469662;55;21327;-68
2022/02/12 11:40:22;;;;;;;6.90;4.72;;;12.70;71.30;;;;;;2289807;55;20922;-69
2022/02/12 11:43:01;;;;;;;7.45;5.07;;;12.90;70.70;;;;;;2271898;54;20980;-70
2022/02/12 11:46:45;;;;;;;8.90;5.25;;;13.00;69.70;;;;;;2287011;55;20946;-71
2022/02/12 11:49:38;;;;;;;9.13;5.43;;;13.10;67.20;;;;;;2289118;56;21047;-71
2022/02/12 11:53:33;;;;;;;8.57;4.47;;;13.20;67.80;;;;;;2376079;55;20937;-71
2022/02/12 11:56:01;;;;;;;9.60;5.80;;;13.30;66.70;;;;;;2288162;55;21006;-69
2022/02/12 12:01:59;;;;;;;7.65;4.78;;;13.30;69.00;;;;;;2386656;55;20960;-72
2022/02/12 12:04:30;;;;;;;11.95;4.87;;;13.40;66.70;;;;;;2502683;55;20973;-71
2022/02/12 12:07:14;;;;;;;7.97;4.32;;;13.40;68.70;;;;;;2397113;54;20980;-71
2022/02/12 12:12:19;;;;;;;7.25;4.40;;;13.40;67.00;;;;;;2287774;56;21015;-70
2022/02/12 12:14:47;;;;;;;8.20;3.72;;;13.40;66.70;;;;;;2502240;54;21096;-73
2022/02/12 12:17:14;;;;;;;9.45;4.57;;;13.40;68.00;;;;;;2288369;56;20929;-69
2022/02/12 12:19:42;;;;;;;8.45;4.45;;;13.40;67.90;;;;;;2291475;56;20972;-69
2022/02/12 12:22:11;;;;;;;6.40;3.90;;;13.40;68.00;;;;;;2284101;54;21003;-71
2022/02/12 12:24:39;;;;;;;7.82;4.43;;;13.40;68.10;;;;;;2288475;56;20984;-69
2022/02/12 12:27:06;;;;;;;6.57;3.92;;;13.50;68.10;;;;;;2436833;54;21031;-70
2022/02/12 12:32:22;;;;;;;7.60;3.75;;;13.50;67.70;;;;;;2288254;56;21677;-69
2022/02/12 12:35:00;;;;;;;7.62;4.03;;;13.60;67.80;;;;;;2465402;55;21730;-71
2022/02/12 12:37:29;;;;;;;7.70;4.12;;;13.60;67.00;;;;;;2287354;55;20955;-69
2022/02/12 12:39:57;;;;;;;8.05;3.83;;;13.70;67.80;;;;;;2362605;55;21944;-72
2022/02/12 12:42:24;;;;;;;5.97;3.87;;;13.70;67.50;;;;;;2288583;56;20991;-71
2022/02/12 12:45:11;;;;;;;8.55;4.80;;;13.70;67.10;;;;;;2353049;55;20972;-70
2022/02/12 12:47:50;;;;;;;8.68;4.50;;;13.70;65.10;;;;;;2285692;54;20992;-70
2022/02/12 12:50:21;;;;;;;8.38;4.18;;;13.70;65.70;;;;;;2287937;56;20956;-69
2022/02/12 12:52:48;;;;;;;8.13;4.43;;;13.80;67.10;;;;;;2288745;55;21072;-70
2022/02/12 12:55:15;;;;;;;6.82;3.87;;;13.80;67.10;;;;;;2320173;54;20949;-70
2022/02/12 12:57:45;;;;;;;9.68;4.80;;;13.80;67.40;;;;;;2287432;55;21036;-72
2022/02/12 13:00:18;;;;;;;7.75;4.45;;;14.00;67.90;;;;;;2288473;56;20949;-70
2022/02/12 13:02:56;;;;;;;7.75;4.10;;;14.00;67.50;;;;;;2297970;56;21062;-71
2022/02/12 13:05:27;;;;;;;5.85;3.70;;;14.20;67.30;;;;;;2272641;55;21008;-69
2022/02/12 13:07:55;;;;;;;6.68;3.92;;;14.30;67.40;;;;;;2288329;56;20976;-71
2022/02/12 13:10:25;;;;;;;6.80;3.83;;;14.40;67.60;;;;;;2288682;55;20940;-72
2022/02/12 13:12:51;;;;;;;7.15;3.85;;;14.50;67.30;;;;;;2288381;56;21028;-72
2022/02/12 13:15:23;;;;;;;7.78;4.03;;;14.60;67.80;;;;;;2316832;55;21363;-73
2022/02/12 13:17:56;;;;;;;5.65;3.78;;;14.80;67.60;;;;;;2288124;55;20977;-73
2022/02/12 13:20:23;;;;;;;6.80;4.53;;;14.80;67.00;;;;;;2288400;56;21422;-71
2022/02/12 13:23:02;;;;;;;8.05;4.62;;;14.90;67.10;;;;;;2288215;56;21072;-71
2022/02/12 13:25:31;;;;;;;7.47;4.22;;;15.00;66.40;;;;;;2517101;54;20995;-72
2022/02/12 13:27:58;;;;;;;5.97;4.05;;;15.10;66.60;;;;;;2284101;55;21006;-70
2022/02/12 13:30:30;;;;;;;6.72;4.00;;;15.10;66.40;;;;;;2312636;55;20929;-73
2022/02/12 13:32:58;;;;;;;7.30;4.25;;;15.10;66.20;;;;;;2364136;54;20968;-73
2022/02/12 13:35:25;;;;;;;7.07;4.53;;;15.10;65.70;;;;;;2310811;54;21087;-72
2022/02/12 13:37:58;;;;;;;8.40;4.22;;;15.00;65.20;;;;;;2287579;56;20941;-70
2022/02/12 13:40:30;;;;;;;10.60;4.10;;;15.00;63.60;;;;;;2511559;54;20945;-70
2022/02/12 13:43:19;;;;;;;7.95;4.43;;;14.90;64.30;;;;;;2288679;56;20968;-71
2022/02/12 13:45:46;;;;;;;8.10;4.12;;;14.90;62.60;;;;;;2289140;56;21032;-71
2022/02/12 13:48:15;;;;;;;11.15;4.43;;;14.80;64.20;;;;;;2288186;56;21044;-71
2022/02/12 13:50:43;;;;;;;10.10;4.60;;;14.70;64.00;;;;;;2288159;56;20956;-70
2022/02/12 13:53:17;;;;;;;11.10;4.22;;;14.70;64.30;;;;;;2433917;54;20979;-70
2022/02/12 13:55:52;;;;;;;7.12;3.80;;;14.60;63.10;;;;;;2265906;55;21040;-72
2022/02/12 13:58:19;;;;;;;6.95;3.83;;;14.50;63.60;;;;;;2290643;55;20969;-71
2022/02/12 14:00:49;;;;;;;8.90;4.25;;;14.50;64.50;;;;;;2522500;54;21612;-71
2022/02/12 14:03:38;;;;;;;6.45;3.72;;;14.40;64.30;;;;;;2334705;54;20948;-70
2022/02/12 14:06:04;;;;;;;7.28;3.62;;;14.40;63.20;;;;;;2289840;55;20977;-67
2022/02/12 14:08:33;;;;;;;8.90;4.62;;;14.40;65.20;;;;;;2355637;55;21570;-72
2022/02/12 14:11:01;;;;;;;8.30;4.60;;;14.30;65.10;;;;;;2356890;54;20980;-71
2022/02/12 14:13:28;;;;;;;7.07;3.72;;;14.40;65.20;;;;;;2292650;55;20975;-72
2022/02/12 14:15:56;;;;;;;8.10;4.32;;;14.30;64.90;;;;;;2283598;55;21074;-71
2022/02/12 14:18:24;;;;;;;10.65;4.95;;;14.30;64.50;;;;;;2285682;55;20957;-71
2022/02/12 14:20:52;;;;;;;7.55;4.03;;;14.20;63.40;;;;;;2287628;56;21010;-70
2022/02/12 14:23:20;;;;;;;7.50;4.30;;;14.10;63.10;;;;;;2288514;56;20968;-71
2022/02/12 14:25:46;;;;;;;7.12;3.90;;;14.00;63.10;;;;;;2288226;56;21071;-71
2022/02/12 14:28:13;;;;;;;7.50;3.67;;;13.90;63.50;;;;;;2288269;56;20993;-73
2022/02/12 14:30:40;;;;;;;6.47;3.20;;;13.80;63.60;;;;;;2296065;55;20995;-71
2022/02/12 14:33:07;;;;;;;6.87;3.72;;;13.80;63.80;;;;;;2289916;55;20990;-68
2022/02/12 14:35:34;;;;;;;5.37;3.33;;;13.70;63.50;;;;;;2285622;54;21013;-74
2022/02/12 14:38:01;;;;;;;6.25;3.22;;;13.70;63.50;;;;;;2434319;55;21410;-71
2022/02/12 14:40:28;;;;;;;6.28;3.42;;;13.60;63.60;;;;;;2316888;55;21376;-70
2022/02/12 14:42:54;;;;;;;5.90;2.92;;;13.50;63.30;;;;;;2288441;56;21478;-70
2022/02/12 14:45:20;;;;;;;7.15;3.53;;;13.40;63.10;;;;;;2289234;56;20965;-71
2022/02/12 14:47:47;;;;;;;9.43;3.75;;;13.40;63.00;;;;;;2437822;55;21061;-73
2022/02/12 14:50:14;;;;;;;8.52;4.53;;;13.30;62.90;;;;;;2441052;54;21948;-70
2022/02/12 14:52:41;;;;;;;7.32;3.58;;;13.20;63.50;;;;;;2288134;56;21233;-72
2022/02/12 14:55:09;;;;;;;6.35;3.40;;;13.10;62.50;;;;;;2346989;54;20960;-71
2022/02/12 14:57:36;;;;;;;6.55;3.42;;;13.00;62.10;;;;;;2288409;55;21451;-71
2022/02/12 15:00:06;;;;;;;5.78;3.10;;;12.90;62.20;;;;;;2522288;54;20992;-71
2022/02/12 15:02:33;;;;;;;7.47;3.58;;;12.80;62.20;;;;;;2288873;56;20922;-71
2022/02/12 15:05:00;;;;;;;6.40;3.60;;;12.60;62.30;;;;;;2523722;54;20932;-71
2022/02/12 15:07:28;;;;;;;6.70;3.20;;;12.60;62.30;;;;;;2288405;56;20959;-72
2022/02/12 15:09:56;;;;;;;6.82;3.33;;;12.50;62.40;;;;;;2490268;55;21003;-72
2022/02/12 15:12:27;;;;;;;5.90;3.53;;;12.40;62.20;;;;;;2308698;55;21529;-71
2022/02/12 15:14:55;;;;;;;6.28;3.08;;;12.30;62.40;;;;;;2287928;55;21585;-73
2022/02/12 15:17:21;;;;;;;6.28;3.33;;;12.30;62.30;;;;;;2288754;56;20955;-71
2022/02/12 15:19:50;;;;;;;6.03;2.78;;;12.20;62.30;;;;;;2474151;54;21036;-71
2022/02/12 15:22:17;;;;;;;6.37;2.70;;;12.10;62.40;;;;;;2288058;55;20969;-73
2022/02/12 15:24:45;;;;;;;7.62;3.22;;;12.10;62.50;;;;;;2288166;55;20976;-70
2022/02/12 15:27:12;;;;;;;5.25;2.80;;;12.00;62.50;;;;;;2288418;56;20987;-72
2022/02/12 15:29:40;;;;;;;6.12;2.92;;;11.90;62.40;;;;;;2298851;55;21537;-71
2022/02/12 15:32:07;;;;;;;6.70;3.15;;;11.90;62.50;;;;;;2288276;56;20960;-71
2022/02/12 15:34:34;;;;;;;8.35;3.75;;;11.80;62.20;;;;;;2299098;55;21036;-72
2022/02/12 15:37:01;;;;;;;5.10;2.83;;;11.80;62.10;;;;;;2329598;55;20988;-73
2022/02/12 15:39:28;;;;;;;5.97;2.90;;;11.70;62.00;;;;;;2288333;56;21703;-71
2022/02/12 15:41:55;;;;;;;6.25;2.85;;;11.60;61.90;;;;;;2288136;56;21452;-71
2022/02/12 15:44:23;;;;;;;5.53;3.03;;;11.50;61.70;;;;;;2287693;55;21135;-71
2022/02/12 15:46:50;;;;;;;5.55;3.33;;;11.50;61.80;;;;;;2288308;56;20972;-71
2022/02/12 15:49:19;;;;;;;5.50;3.50;;;11.30;61.60;;;;;;2288562;56;20964;-72
2022/02/12 15:51:46;;;;;;;6.53;3.30;;;11.30;61.60;;;;;;2287987;56;21851;-71
2022/02/12 15:54:12;;;;;;;5.87;3.37;;;11.10;61.40;;;;;;2515114;55;20949;-72
2022/02/12 15:56:38;;;;;;;5.18;3.10;;;11.10;61.60;;;;;;2318422;55;20972;-71
2022/02/12 15:59:05;;;;;;;5.97;3.08;;;11.00;61.50;;;;;;2377668;55;20957;-73
2022/02/12 16:01:31;;;;;;;5.93;3.40;;;10.90;61.50;;;;;;2340963;55;21005;-72
2022/02/12 16:03:57;;;;;;;8.90;3.65;;;10.80;61.40;;;;;;2298731;54;21040;-71
2022/02/12 16:06:24;;;;;;;7.30;4.03;;;10.80;62.20;;;;;;2354590;55;20974;-71
2022/02/12 16:08:50;;;;;;;7.10;4.00;;;10.70;61.20;;;;;;2288395;56;21390;-71
2022/02/12 16:11:17;;;;;;;6.97;3.35;;;10.60;61.20;;;;;;2288592;56;20956;-73
2022/02/12 16:13:43;;;;;;;7.55;3.75;;;10.50;61.10;;;;;;2288116;56;21622;-71
2022/02/12 16:16:11;;;;;;;9.43;4.10;;;10.40;61.00;;;;;;2289553;55;20941;-74
2022/02/12 16:18:37;;;;;;;6.80;3.53;;;10.30;61.00;;;;;;2285953;55;21373;-70
2022/02/12 16:21:04;;;;;;;6.85;4.05;;;10.20;61.10;;;;;;2287208;55;20988;-71
2022/02/12 16:23:30;;;;;;;6.37;3.87;;;10.10;61.10;;;;;;2298380;55;20928;-71
2022/02/12 16:25:56;;;;;;;6.18;3.75;;;10.10;61.20;;;;;;2289696;55;21128;-71
2022/02/12 16:28:25;;;;;;;7.97;4.05;;;10.00;61.10;;;;;;2359679;55;20951;-72
2022/02/12 16:30:57;;;;;;;6.12;3.90;;;9.90;62.20;;;;;;2290885;55;20956;-70
2022/02/12 16:33:23;;;;;;;7.57;3.60;;;9.80;62.10;;;;;;2287185;55;21041;-72
2022/02/12 16:35:50;;;;;;;9.73;4.47;;;9.70;61.90;;;;;;2285535;55;21554;-70
2022/02/12 16:38:19;;;;;;;8.55;4.15;;;9.60;61.90;;;;;;2288824;56;20956;-72
2022/02/12 16:40:46;;;;;;;8.45;4.25;;;9.50;61.50;;;;;;2288267;55;21016;-71
2022/02/12 16:43:12;;;;;;;7.32;3.47;;;9.40;61.60;;;;;;2289555;56;20960;-72
2022/02/12 16:45:39;;;;;;;8.35;4.43;;;9.20;61.50;;;;;;2522216;55;21420;-70
2022/02/12 16:48:06;;;;;;;9.50;5.18;;;9.10;61.50;;;;;;2290232;55;21065;-77
2022/02/12 16:50:33;;;;;;;10.77;6.18;;;9.00;61.40;;;;;;2292251;55;21038;-76